METAR Data
IDs: Format: Raw Decoded Include TAF

Data at: 1835 UTC 23 Feb 2019

Region: TOP
KATL 231752Z 10009KT 1/2SM R09R/5000VP6000FT -DZ BR OVC002 10/09 A3013 RMK AO2 SFC VIS 1 1/2 SLP206 P0000 60000 T01000089 10100 20089 58020

KBOS 231754Z 07005KT 10SM FEW045 OVC200 03/M05 A3042 RMK AO2 SLP299 T00281050 10033 21006 58025

KBWI 231754Z 09005KT 10SM -RA BKN085 OVC110 04/M01 A3037 RMK AO2 RAB07 SLP284 P0000 60000 T00391011 10039 20022 58026

KCLE 231751Z 14010KT 10SM OVC050 07/00 A3008 RMK AO2 SLP192 T00670000 10067 20006 58030

KCLT 231752Z 03006KT 4SM -RA BR BKN007 OVC014 06/04 A3024 RMK AO2 SLP243 P0006 60030 T00610044 10067 20056 58014 $

KCVG 231752Z 14008KT 9SM BKN007 OVC008 09/06 A2998 RMK AO2 SLP151 T00890061 10089 20044 58015

KDCA 231752Z 10005KT 6SM -RA OVC070 04/01 A3038 RMK AO2 PRESFR SLP285 P0002 60003 T00440006 10056 20044 58027

KDEN 231753Z 00000KT 6SM HZ FEW100 BKN200 M03/M07 A2982 RMK AO2 SLP125 T10331067 11033 21067 53004

KDFW 231753Z 25023G27KT 10SM BKN300 18/M02 A2981 RMK AO2 PK WND 26032/1740 SLP090 60000 T01831022 10183 20100 58001

KDTW 231832Z 08009KT 9SM OVC030 03/M04 A3005 RMK AO2 T00331039

KEWR 231751Z 11005KT 10SM OVC240 04/M05 A3042 RMK AO2 SLP301 T00391050 10044 21006 58021

KFLL 231753Z 14020KT 10SM FEW019 SCT028 BKN060 28/23 A3012 RMK AO2 SLP200 T02780233 10289 20256 58017

KIAD 231752Z 10007KT 4SM -RA BR OVC065 03/01 A3035 RMK AO2 SLP280 P0003 60004 T00330011 10044 20028 58028

KIAH 231802Z 32015G24KT 10SM FEW035 SCT060 BKN080 BKN250 22/12 A2992 RMK AO2 T02220117

KJFK 231751Z VRB06KT 10SM OVC250 04/M02 A3044 RMK AO2 SLP306 T00391017 10039 20000 58021

KLAS 231756Z 07004KT 10SM FEW200 06/M08 A3030 RMK AO2 SLP266 T00611078 10067 20000 50017 $

KLAX 231753Z VRB03KT 10SM FEW022 14/02 A3033 RMK AO2 SLP271 T01390017 10139 20050 51015 $

KLGA 231751Z 06007KT 10SM FEW130 OVC250 03/M05 A3043 RMK AO2 SLP302 T00331050 10033 20000 58020

KMCO 231753Z 18012G18KT 10SM SCT035 30/19 A3012 RMK AO2 SLP196 T03000194 10300 20228 58025

KMDW 231812Z 06008KT 2SM -RA BR BKN005 OVC012 02/01 A2989 RMK AO2 T00170011 PNO $

KMEM 231830Z 19020G27KT 10SM SCT020 OVC027 22/20 A2974 RMK AO2 PK WND 20027/1830 LTG DSNT SW-N RAB16E27 P0001 T02220200 $

KMIA 231753Z 14017G24KT 10SM BKN023 BKN075 28/22 A3013 RMK AO2 SLP203 T02780222 10289 20244 58017

KMSP 231806Z 09006KT 2 1/2SM HZ OVC009 M01/M03 A2987 RMK AO2 T10061033

KORD 231819Z 06012KT 4SM -RA BR OVC006 02/00 A2988 RMK AO2 P0002 T00170000

KPDX 231753Z 08005KT 10SM BKN012 BKN016 OVC075 06/03 A3016 RMK AO2 SLP214 T00560033 10056 20033 50005

KPHL 231754Z 04004KT 10SM OVC140 05/M03 A3042 RMK AO2 SLP299 T00501033 10050 20011 58020 $

KPHX 231751Z COR VRB03KT 10SM FEW100 FEW120 09/04 A3034 RMK AO2 SLP272 T00890039 10089 20022 51017

KPIT 231751Z 13012G21KT 10SM OVC026 05/01 A3013 RMK AO2 SLP218 60000 T00500011 10056 20000 58023

KSAN 231751Z VRB03KT 10SM CLR 13/M01 A3035 RMK AO2 SLP275 T01281006 10128 20061 51013

KSEA 231753Z 20013KT 10SM FEW013 SCT023 BKN130 04/01 A3011 RMK AO2 SLP205 T00440006 10050 20022 51010

KSFO 231756Z 10007KT 10SM FEW170 BKN200 09/04 A3034 RMK AO2 SLP272 T00890039 10100 20033 50016

KSLC 231754Z 15013KT 10SM FEW060 BKN100 M01/M08 A3021 RMK AO2 SLP253 T10111083 11011 21072 51010

KSTL 231826Z 13015KT 5SM -RA BR OVC003 09/08 A2970 RMK AO2 LTG DSNT N-SE RAB1755 TSE17 PRESFR P0007 T00940083 $

KTPA 231753Z 10SM SCT036 SCT060 29/21 A3012 RMK AO2 SLP197 T02940211 $